createdAt,value
2019-03-11T00:00:57.714Z,6.30
2019-03-11T00:03:27.750Z,7.10
2019-03-11T00:05:57.643Z,9.53
2019-03-11T00:08:26.882Z,4.77
2019-03-11T00:10:56.611Z,6.00
2019-03-11T00:13:26.350Z,8.97
2019-03-11T00:15:56.015Z,4.07
2019-03-11T00:18:25.864Z,6.07
2019-03-11T00:20:55.514Z,10.83
2019-03-11T00:23:25.248Z,9.73
2019-03-11T00:25:54.501Z,8.60
2019-03-11T00:28:23.748Z,9.00
2019-03-11T00:30:53.878Z,6.50
2019-03-11T00:33:23.486Z,7.73
2019-03-11T00:35:52.843Z,10.23
2019-03-11T00:38:22.043Z,4.60
2019-03-11T00:40:51.716Z,7.43
2019-03-11T00:43:21.633Z,6.50
2019-03-11T00:45:50.934Z,4.43
2019-03-11T00:48:20.674Z,3.43
2019-03-11T00:50:49.956Z,7.20
2019-03-11T00:53:19.555Z,9.23
2019-03-11T00:55:48.862Z,6.43
2019-03-11T00:58:21.068Z,5.37
2019-03-11T01:00:49.882Z,11.80
2019-03-11T01:03:19.578Z,10.67
2019-03-11T01:05:49.262Z,6.10
2019-03-11T01:08:18.512Z,8.57
2019-03-11T01:10:48.198Z,9.17
2019-03-11T01:13:18.155Z,6.80
2019-03-11T01:15:47.399Z,9.10
2019-03-11T01:18:16.735Z,5.73
2019-03-11T01:20:46.120Z,12.33
2019-03-11T01:23:15.363Z,5.60
2019-03-11T01:25:44.550Z,7.93
2019-03-11T01:28:13.723Z,6.83
2019-03-11T01:30:43.358Z,7.20
2019-03-11T01:33:12.823Z,5.57
2019-03-11T01:35:42.026Z,7.60
2019-03-11T01:38:11.746Z,5.67
2019-03-11T01:40:41.005Z,4.07
2019-03-11T01:43:10.633Z,6.13
2019-03-11T01:45:40.396Z,6.13
2019-03-11T01:48:10.211Z,5.87
2019-03-11T01:50:40.452Z,3.20
2019-03-11T01:53:10.033Z,4.10
2019-03-11T01:55:39.402Z,8.17
2019-03-11T01:58:09.145Z,10.90
2019-03-11T02:00:38.853Z,5.77
2019-03-11T02:03:09.742Z,6.43
2019-03-11T02:05:45.443Z,7.10
2019-03-11T02:08:16.446Z,5.63
2019-03-11T02:10:46.370Z,6.07
2019-03-11T02:13:16.132Z,7.13
2019-03-11T02:15:46.104Z,7.50
2019-03-11T02:18:16.113Z,8.13
2019-03-11T02:20:45.474Z,4.77
2019-03-11T02:23:16.058Z,8.07
2019-03-11T02:25:45.402Z,7.97
2019-03-11T02:28:14.676Z,4.37
2019-03-11T02:30:44.111Z,9.47
2019-03-11T02:33:13.504Z,8.70
2019-03-11T02:35:43.418Z,5.73
2019-03-11T02:38:12.672Z,2.43
2019-03-11T02:40:42.642Z,5.17
2019-03-11T02:43:12.040Z,5.13
2019-03-11T02:45:41.794Z,7.20
2019-03-11T02:48:11.952Z,6.33
2019-03-11T02:50:41.670Z,8.60
2019-03-11T02:53:11.247Z,5.90
2019-03-11T02:55:40.978Z,4.33
2019-03-11T02:58:10.367Z,7.00
2019-03-11T03:00:39.503Z,4.10
2019-03-11T03:03:12.679Z,6.40
2019-03-11T03:05:44.960Z,8.13
2019-03-11T03:08:14.099Z,5.93
2019-03-11T03:10:43.834Z,7.40
2019-03-11T03:13:14.506Z,7.97
2019-03-11T03:15:43.792Z,7.33
2019-03-11T03:18:13.503Z,13.03
2019-03-11T03:20:42.819Z,6.67
2019-03-11T03:23:12.459Z,8.90
2019-03-11T03:25:41.730Z,10.50
2019-03-11T03:28:11.022Z,9.27
2019-03-11T03:30:40.299Z,10.17
2019-03-11T03:33:10.043Z,6.30
2019-03-11T03:35:39.980Z,9.10
2019-03-11T03:38:09.755Z,9.73
2019-03-11T03:40:39.968Z,11.70
2019-03-11T03:43:09.603Z,13.57
2019-03-11T03:45:40.261Z,7.50
2019-03-11T03:48:10.463Z,7.37
2019-03-11T03:50:40.415Z,7.03
2019-03-11T03:53:10.408Z,10.67
2019-03-11T03:55:39.676Z,9.83
2019-03-11T03:58:09.296Z,14.40
2019-03-11T04:00:39.606Z,11.20
2019-03-11T04:03:08.750Z,9.10
2019-03-11T04:05:37.917Z,15.97
2019-03-11T04:08:07.420Z,14.70
2019-03-11T04:10:36.754Z,9.60
2019-03-11T04:13:06.706Z,9.70
2019-03-11T04:15:37.641Z,8.80
2019-03-11T04:18:09.857Z,11.17
2019-03-11T04:20:39.645Z,13.47
2019-03-11T04:23:09.177Z,8.43
2019-03-11T04:25:38.413Z,11.47
2019-03-11T04:28:07.639Z,12.53
2019-03-11T04:30:37.334Z,9.43
2019-03-11T04:33:07.130Z,9.93
2019-03-11T04:35:36.548Z,12.50
2019-03-11T04:38:05.904Z,13.67
2019-03-11T04:40:35.558Z,12.20
2019-03-11T04:43:06.620Z,13.00
2019-03-11T04:45:35.955Z,10.07
2019-03-11T04:48:05.669Z,10.67
2019-03-11T04:50:35.333Z,11.93
2019-03-11T04:53:05.049Z,10.00
2019-03-11T04:55:37.845Z,8.50
2019-03-11T04:58:07.007Z,11.63
2019-03-11T05:00:36.158Z,10.90
2019-03-11T05:03:05.731Z,8.93
2019-03-11T05:05:35.472Z,7.37
2019-03-11T05:08:04.887Z,11.10
2019-03-11T05:10:34.606Z,12.57
2019-03-11T05:13:05.987Z,9.67
2019-03-11T05:15:35.734Z,13.07
2019-03-11T05:18:05.525Z,10.90
2019-03-11T05:20:35.697Z,15.37
2019-03-11T05:23:05.469Z,11.70
2019-03-11T05:25:35.269Z,10.17
2019-03-11T05:28:04.499Z,10.50
2019-03-11T05:30:34.132Z,13.07
2019-03-11T05:33:03.776Z,9.97
2019-03-11T05:35:33.167Z,10.30
2019-03-11T05:38:02.335Z,12.47
2019-03-11T05:40:31.985Z,12.87
2019-03-11T05:43:01.447Z,14.03
2019-03-11T05:45:30.717Z,14.50
2019-03-11T05:48:00.271Z,13.63
2019-03-11T05:50:29.935Z,14.27
2019-03-11T05:52:59.202Z,13.90
2019-03-11T05:55:28.809Z,11.93
2019-03-11T05:58:00.798Z,11.87
2019-03-11T06:00:30.731Z,13.93
2019-03-11T06:02:59.953Z,15.27
2019-03-11T06:05:33.920Z,13.73
2019-03-11T06:08:03.655Z,12.57
2019-03-11T06:10:42.128Z,14.70
2019-03-11T06:13:11.742Z,13.43
2019-03-11T06:15:45.169Z,16.47
2019-03-11T06:18:16.520Z,15.83
2019-03-11T06:21:04.247Z,15.87
2019-03-11T06:23:33.549Z,12.60
2019-03-11T06:26:03.483Z,15.63
2019-03-11T06:28:33.336Z,15.47
2019-03-11T06:31:02.603Z,21.63
2019-03-11T06:33:32.191Z,18.40
2019-03-11T06:36:09.266Z,22.80
2019-03-11T06:38:39.086Z,17.37
2019-03-11T06:41:08.835Z,17.10
2019-03-11T06:43:38.626Z,21.73
2019-03-11T06:46:08.620Z,14.77
2019-03-11T06:48:38.439Z,13.83
2019-03-11T06:51:08.866Z,12.90
2019-03-11T06:53:38.836Z,14.40
2019-03-11T06:56:08.215Z,11.80
2019-03-11T06:58:37.823Z,14.77
2019-03-11T07:01:07.431Z,20.80
2019-03-11T07:03:37.055Z,16.53
2019-03-11T07:06:06.313Z,22.40
2019-03-11T07:08:36.109Z,11.20
2019-03-11T07:11:05.823Z,7.77
2019-03-11T07:13:35.343Z,10.00
2019-03-11T07:16:05.504Z,8.00
2019-03-11T07:18:35.073Z,7.60
2019-03-11T07:21:04.786Z,5.83
2019-03-11T07:23:34.209Z,7.03
2019-03-11T07:26:03.566Z,6.30
2019-03-11T07:28:33.337Z,5.30
2019-03-11T07:31:03.020Z,6.53
2019-03-11T07:33:32.394Z,8.57
2019-03-11T07:36:03.158Z,8.67
2019-03-11T07:38:32.932Z,7.00
2019-03-11T07:41:02.312Z,6.83
2019-03-11T07:43:31.986Z,6.70
2019-03-11T07:46:01.761Z,6.37
2019-03-11T07:48:31.502Z,7.07
2019-03-11T07:51:01.284Z,6.47
2019-03-11T07:53:31.156Z,6.77
2019-03-11T07:56:01.188Z,6.47
2019-03-11T07:58:30.896Z,6.33
2019-03-11T08:01:00.234Z,6.47
2019-03-11T08:03:29.955Z,6.63
2019-03-11T08:05:59.692Z,7.50
2019-03-11T08:08:29.446Z,5.70
2019-03-11T08:10:59.343Z,9.37
2019-03-11T08:13:29.231Z,9.40
2019-03-11T08:15:59.066Z,5.20
2019-03-11T08:18:35.139Z,5.13
2019-03-11T08:21:00.265Z,7.20
2019-03-11T08:23:29.567Z,6.03
2019-03-11T08:25:59.149Z,6.37
2019-03-11T08:28:28.824Z,4.97
2019-03-11T08:30:58.052Z,7.10
2019-03-11T08:33:29.216Z,3.70
2019-03-11T08:35:58.544Z,5.80
2019-03-11T08:38:28.161Z,5.83
2019-03-11T08:40:57.948Z,8.60
2019-03-11T08:43:28.354Z,6.80
2019-03-11T08:45:58.099Z,5.80
2019-03-11T08:48:27.741Z,5.03
2019-03-11T08:50:57.411Z,5.00
2019-03-11T08:53:26.723Z,4.33
2019-03-11T08:55:55.860Z,3.50
2019-03-11T08:58:25.069Z,3.63
2019-03-11T09:00:54.364Z,4.10
2019-03-11T09:03:23.656Z,3.90
2019-03-11T09:05:52.819Z,4.13
2019-03-11T09:08:21.929Z,2.90
2019-03-11T09:10:53.988Z,3.43
2019-03-11T09:13:23.945Z,10.97
2019-03-11T09:15:53.682Z,10.93
2019-03-11T09:18:23.488Z,10.57
2019-03-11T09:20:53.302Z,3.40
2019-03-11T09:23:22.984Z,3.10
2019-03-11T09:25:52.645Z,2.63
2019-03-11T09:28:22.141Z,2.50
2019-03-11T09:30:51.797Z,2.30
2019-03-11T09:33:21.721Z,3.00
2019-03-11T09:35:50.943Z,3.57
2019-03-11T09:38:20.106Z,4.60
2019-03-11T09:40:49.768Z,6.40
2019-03-11T09:43:19.149Z,6.80
2019-03-11T09:45:48.943Z,7.70
2019-03-11T09:48:18.780Z,4.47
2019-03-11T09:50:48.148Z,3.37
2019-03-11T09:53:17.735Z,2.30
2019-03-11T09:55:47.633Z,2.50
2019-03-11T09:58:17.403Z,2.77
2019-03-11T10:00:47.468Z,3.40
2019-03-11T10:03:17.103Z,2.87
2019-03-11T10:05:46.403Z,2.37
2019-03-11T10:08:15.969Z,4.77
2019-03-11T10:10:45.240Z,2.60
2019-03-11T10:13:14.992Z,2.30
2019-03-11T10:15:44.721Z,3.83
2019-03-11T10:18:14.427Z,2.10
2019-03-11T10:20:44.141Z,2.33
2019-03-11T10:23:13.833Z,12.23
2019-03-11T10:25:43.481Z,8.97
2019-03-11T10:28:13.223Z,13.20
2019-03-11T10:30:42.545Z,4.77
2019-03-11T10:33:12.472Z,2.87
2019-03-11T10:35:43.066Z,3.43
2019-03-11T10:38:12.332Z,4.20
2019-03-11T10:40:42.378Z,3.77
2019-03-11T10:43:12.114Z,2.47
2019-03-11T10:45:41.743Z,2.83
2019-03-11T10:48:11.717Z,3.20
2019-03-11T10:50:41.414Z,2.97
2019-03-11T10:53:12.121Z,3.90
2019-03-11T10:55:41.792Z,3.30
2019-03-11T10:58:11.429Z,3.90
2019-03-11T11:00:41.252Z,4.07
2019-03-11T11:03:10.512Z,3.70
2019-03-11T11:05:40.162Z,2.57
2019-03-11T11:08:09.976Z,3.47
2019-03-11T11:10:39.691Z,5.67
2019-03-11T11:13:09.445Z,3.27
2019-03-11T11:15:39.276Z,3.13
2019-03-11T11:18:08.659Z,4.60
2019-03-11T11:20:38.435Z,4.00
2019-03-11T11:23:08.399Z,3.60
2019-03-11T11:25:38.047Z,2.83
2019-03-11T11:28:07.763Z,5.00
2019-03-11T11:30:37.590Z,5.07
2019-03-11T11:33:07.277Z,5.40
2019-03-11T11:35:36.599Z,6.17
2019-03-11T11:38:06.397Z,5.73
2019-03-11T11:40:36.236Z,7.67
2019-03-11T11:43:06.222Z,4.63
2019-03-11T11:45:35.548Z,7.17
2019-03-11T11:48:05.097Z,4.43
2019-03-11T11:50:34.329Z,3.50
2019-03-11T11:53:03.448Z,2.90
2019-03-11T11:55:33.870Z,3.97
2019-03-11T11:58:03.452Z,3.40
2019-03-11T12:00:33.738Z,36.33
2019-03-11T12:03:03.574Z,28.43
2019-03-11T12:05:33.403Z,30.27
2019-03-11T12:08:02.713Z,14.17
2019-03-11T12:10:31.984Z,5.97
2019-03-11T12:13:01.776Z,6.13
2019-03-11T12:15:31.128Z,5.73
2019-03-11T12:18:00.388Z,6.57
2019-03-11T12:20:30.050Z,5.17
2019-03-11T12:22:59.797Z,5.37
2019-03-11T12:25:29.710Z,7.33
2019-03-11T12:27:59.533Z,7.03
2019-03-11T12:30:28.836Z,7.33
2019-03-11T12:32:58.094Z,7.43
2019-03-11T12:35:28.276Z,4.73
2019-03-11T12:37:57.675Z,7.23
2019-03-11T12:40:28.897Z,6.13
2019-03-11T12:42:57.741Z,7.17
2019-03-11T12:45:27.374Z,4.20
2019-03-11T12:47:56.627Z,6.53
2019-03-11T12:50:26.207Z,6.97
2019-03-11T12:52:56.017Z,6.77
2019-03-11T12:55:25.710Z,3.80
2019-03-11T12:57:55.534Z,4.97
2019-03-11T13:00:24.945Z,4.40
2019-03-11T13:02:54.213Z,3.87
2019-03-11T13:05:23.987Z,3.73
2019-03-11T13:07:53.816Z,4.23
2019-03-11T13:10:23.527Z,7.63
2019-03-11T13:12:53.338Z,8.10
2019-03-11T13:15:22.732Z,8.13
2019-03-11T13:17:52.557Z,11.67
2019-03-11T13:20:28.511Z,7.83
2019-03-11T13:22:58.201Z,7.10
2019-03-11T13:25:27.460Z,5.87
2019-03-11T13:27:56.720Z,6.37
2019-03-11T13:30:27.752Z,8.43
2019-03-11T13:32:57.170Z,11.50
2019-03-11T13:35:26.319Z,9.43
2019-03-11T13:37:55.977Z,9.37
2019-03-11T13:40:25.286Z,8.07
2019-03-11T13:42:54.507Z,13.53
2019-03-11T13:45:25.107Z,19.17
2019-03-11T13:47:54.322Z,15.20
2019-03-11T13:50:23.998Z,8.70
2019-03-11T13:52:53.724Z,7.17
2019-03-11T13:55:23.529Z,7.53
2019-03-11T13:57:53.340Z,10.43
2019-03-11T14:00:23.204Z,5.87
2019-03-11T14:02:53.264Z,7.67
2019-03-11T14:05:22.570Z,7.33
2019-03-11T14:07:51.934Z,7.70
2019-03-11T14:10:21.211Z,7.97
2019-03-11T14:12:50.375Z,10.07
2019-03-11T14:15:20.051Z,4.80
2019-03-11T14:17:49.549Z,5.57
2019-03-11T14:20:19.143Z,5.67
2019-03-11T14:22:48.743Z,7.60
2019-03-11T14:25:18.310Z,4.27
2019-03-11T14:27:47.586Z,4.30
2019-03-11T14:30:17.347Z,5.03
2019-03-11T14:32:47.287Z,6.17
2019-03-11T14:35:16.561Z,6.63
2019-03-11T14:37:46.238Z,9.07
2019-03-11T14:40:16.082Z,8.13
2019-03-11T14:42:45.399Z,5.67
2019-03-11T14:45:14.744Z,7.17
2019-03-11T14:47:44.327Z,4.90
2019-03-11T14:50:13.695Z,3.13
2019-03-11T14:52:43.436Z,3.20
2019-03-11T14:55:13.562Z,5.10
2019-03-11T14:57:43.523Z,3.87
2019-03-11T15:00:17.933Z,6.70
2019-03-11T15:02:46.261Z,3.53
2019-03-11T15:05:17.321Z,5.13
2019-03-11T15:07:46.866Z,5.70
2019-03-11T15:10:17.572Z,3.80
2019-03-11T15:12:47.503Z,5.73
2019-03-11T15:15:17.928Z,5.00
2019-03-11T15:17:47.344Z,10.67
2019-03-11T15:20:17.120Z,10.63
2019-03-11T15:22:47.071Z,7.47
2019-03-11T15:25:16.908Z,7.33
2019-03-11T15:27:46.137Z,8.73
2019-03-11T15:30:17.230Z,4.53
2019-03-11T15:32:46.793Z,7.57
2019-03-11T15:35:16.087Z,5.57
2019-03-11T15:37:45.832Z,6.53
2019-03-11T15:40:15.628Z,8.60
2019-03-11T15:42:45.198Z,7.10
2019-03-11T15:45:15.209Z,8.33
2019-03-11T15:47:44.512Z,10.60
2019-03-11T15:50:21.652Z,15.83
2019-03-11T15:52:51.302Z,15.47
2019-03-11T15:55:20.634Z,8.60
2019-03-11T15:57:49.819Z,9.53
2019-03-11T16:00:20.127Z,5.07
2019-03-11T16:02:49.431Z,10.17
2019-03-11T16:05:18.915Z,8.40
2019-03-11T16:07:48.373Z,5.77
2019-03-11T16:10:18.101Z,10.07
2019-03-11T16:12:48.593Z,7.60
2019-03-11T16:15:18.614Z,11.73
2019-03-11T16:17:48.061Z,14.17
2019-03-11T16:20:18.174Z,12.20
2019-03-11T16:22:48.249Z,8.40
2019-03-11T16:25:17.462Z,7.73
2019-03-11T16:27:47.128Z,8.53
2019-03-11T16:30:25.668Z,10.47
2019-03-11T16:33:00.632Z,9.30
2019-03-11T16:35:27.171Z,7.70
2019-03-11T16:37:56.394Z,7.40
2019-03-11T16:40:25.745Z,8.30
2019-03-11T16:42:55.578Z,9.90
2019-03-11T16:45:25.552Z,11.27
2019-03-11T16:47:54.850Z,13.57
2019-03-11T16:50:24.509Z,13.17
2019-03-11T16:52:54.250Z,10.23
2019-03-11T16:55:26.917Z,7.30
2019-03-11T16:57:56.317Z,10.10
2019-03-11T17:00:29.488Z,8.53
2019-03-11T17:02:58.724Z,6.50
2019-03-11T17:05:28.037Z,8.17
2019-03-11T17:07:57.723Z,6.93
2019-03-11T17:10:27.577Z,10.60
2019-03-11T17:12:56.793Z,9.40
2019-03-11T17:15:27.157Z,10.20
2019-03-11T17:17:57.294Z,9.53
2019-03-11T17:20:27.224Z,9.97
2019-03-11T17:22:56.896Z,9.97
2019-03-11T17:25:26.131Z,7.00
2019-03-11T17:27:56.086Z,8.67
2019-03-11T17:30:25.995Z,6.87
2019-03-11T17:32:55.785Z,10.70
2019-03-11T17:35:25.551Z,9.83
2019-03-11T17:37:55.269Z,10.20
2019-03-11T17:40:25.341Z,12.37
2019-03-11T17:42:55.668Z,6.73
2019-03-11T17:45:24.864Z,5.57
2019-03-11T17:47:54.051Z,9.60
2019-03-11T17:50:23.264Z,10.63
2019-03-11T17:52:53.246Z,8.23
2019-03-11T17:55:22.519Z,8.77
2019-03-11T17:57:51.776Z,10.73
2019-03-11T18:00:25.367Z,7.97
2019-03-11T18:02:55.466Z,14.27
2019-03-11T18:05:24.681Z,10.77
2019-03-11T18:07:54.358Z,10.37
2019-03-11T18:10:24.028Z,10.07
2019-03-11T18:12:53.749Z,15.40
2019-03-11T18:15:23.590Z,15.13
2019-03-11T18:17:53.320Z,8.23
2019-03-11T18:20:23.117Z,8.40
2019-03-11T18:22:52.496Z,9.73
2019-03-11T18:25:21.723Z,5.87
2019-03-11T18:27:51.611Z,9.77
2019-03-11T18:30:21.438Z,10.67
2019-03-11T18:32:51.361Z,10.57
2019-03-11T18:35:20.692Z,11.60
2019-03-11T18:37:49.994Z,11.93
2019-03-11T18:40:20.138Z,9.40
2019-03-11T18:42:49.685Z,8.37
2019-03-11T18:45:19.421Z,10.73
2019-03-11T18:47:48.819Z,15.70
2019-03-11T18:50:18.017Z,12.80
2019-03-11T18:52:47.824Z,13.33
2019-03-11T18:55:17.557Z,15.97
2019-03-11T18:57:46.851Z,14.93
2019-03-11T19:00:16.888Z,18.03
2019-03-11T19:02:46.284Z,20.90
2019-03-11T19:05:16.321Z,14.90
2019-03-11T19:07:45.717Z,13.43
2019-03-11T19:10:15.039Z,15.87
2019-03-11T19:12:44.929Z,13.80
2019-03-11T19:15:15.703Z,15.03
2019-03-11T19:17:45.547Z,16.97
2019-03-11T19:20:16.942Z,13.83
2019-03-11T19:22:46.773Z,19.60
2019-03-11T19:25:16.479Z,12.60
2019-03-11T19:27:46.790Z,10.00
2019-03-11T19:30:16.680Z,11.37
2019-03-11T19:32:45.841Z,12.90
2019-03-11T19:35:15.647Z,13.17
2019-03-11T19:37:45.502Z,11.37
2019-03-11T19:40:16.264Z,14.77
2019-03-11T19:42:46.726Z,17.63
2019-03-11T19:45:16.713Z,14.90
2019-03-11T19:47:46.877Z,14.03
2019-03-11T19:50:16.789Z,13.67
2019-03-11T19:52:57.685Z,16.00
2019-03-11T19:55:18.178Z,15.10
2019-03-11T19:57:48.154Z,10.53
2019-03-11T20:00:18.727Z,12.17
2019-03-11T20:02:48.226Z,12.57
2019-03-11T20:05:21.308Z,14.30
2019-03-11T20:07:50.796Z,17.70
2019-03-11T20:10:20.516Z,12.77
2019-03-11T20:12:50.308Z,13.17
2019-03-11T20:15:20.253Z,15.00
2019-03-11T20:17:49.622Z,10.30
2019-03-11T20:20:19.726Z,10.73
2019-03-11T20:22:53.043Z,15.10
2019-03-11T20:25:25.355Z,12.10
2019-03-11T20:27:55.163Z,13.83
2019-03-11T20:30:24.519Z,16.23
2019-03-11T20:32:54.331Z,13.23
2019-03-11T20:35:24.084Z,14.40
2019-03-11T20:37:53.490Z,12.53
2019-03-11T20:40:23.117Z,15.07
2019-03-11T20:42:52.388Z,17.30
2019-03-11T20:45:22.145Z,17.20
2019-03-11T20:47:51.421Z,11.43
2019-03-11T20:50:21.090Z,17.47
2019-03-11T20:52:50.789Z,16.73
2019-03-11T20:55:20.133Z,16.00
2019-03-11T20:57:51.227Z,12.23
2019-03-11T21:00:21.187Z,17.43
2019-03-11T21:02:51.296Z,13.07
2019-03-11T21:05:24.445Z,16.13
2019-03-11T21:07:54.185Z,15.97
2019-03-11T21:10:23.846Z,15.50
2019-03-11T21:12:53.559Z,16.90
2019-03-11T21:15:22.850Z,21.13
2019-03-11T21:17:52.553Z,17.87
2019-03-11T21:20:22.335Z,18.10
2019-03-11T21:22:51.589Z,18.23
2019-03-11T21:25:21.410Z,15.97
2019-03-11T21:27:51.210Z,20.93
2019-03-11T21:30:21.563Z,18.57
2019-03-11T21:32:50.925Z,16.10
2019-03-11T21:35:20.260Z,15.97
2019-03-11T21:37:50.067Z,21.73
2019-03-11T21:40:19.888Z,19.73
2019-03-11T21:42:50.733Z,17.23
2019-03-11T21:45:33.011Z,16.23
2019-03-11T21:47:52.865Z,14.60
2019-03-11T21:50:22.752Z,16.40
2019-03-11T21:52:52.557Z,14.30
2019-03-11T21:55:21.867Z,16.90
2019-03-11T21:57:54.181Z,16.67
2019-03-11T22:00:33.789Z,18.50
2019-03-11T22:02:55.659Z,15.97
2019-03-11T22:05:25.344Z,20.80
2019-03-11T22:07:54.669Z,16.83
2019-03-11T22:10:24.210Z,17.20
2019-03-11T22:12:54.092Z,18.27
2019-03-11T22:15:23.273Z,18.07
2019-03-11T22:17:52.856Z,17.97
2019-03-11T22:20:22.601Z,19.60
2019-03-11T22:22:51.868Z,15.73
2019-03-11T22:25:21.103Z,29.20
2019-03-11T22:27:50.709Z,23.97
2019-03-11T22:30:19.941Z,29.40
2019-03-11T22:32:49.086Z,24.57
2019-03-11T22:35:18.314Z,15.13
2019-03-11T22:37:48.510Z,10.87
2019-03-11T22:40:18.242Z,14.03
2019-03-11T22:42:48.028Z,16.60
2019-03-11T22:45:19.529Z,15.03
2019-03-11T22:47:49.024Z,14.63
2019-03-11T22:50:19.367Z,15.23
2019-03-11T22:52:49.139Z,9.80
2019-03-11T22:55:19.176Z,11.30
2019-03-11T22:57:50.241Z,13.50
2019-03-11T23:00:41.544Z,11.73
2019-03-11T23:03:12.453Z,11.77
2019-03-11T23:05:56.985Z,14.13
2019-03-11T23:08:12.524Z,13.43
2019-03-11T23:10:42.140Z,9.97
2019-03-11T23:13:11.781Z,10.53
2019-03-11T23:15:41.489Z,9.20
2019-03-11T23:18:11.452Z,12.00
2019-03-11T23:20:41.307Z,11.83
2019-03-11T23:23:10.969Z,12.40
2019-03-11T23:25:40.386Z,11.53
2019-03-11T23:28:09.943Z,19.43
2019-03-11T23:30:39.681Z,23.53
2019-03-11T23:33:09.823Z,22.10
2019-03-11T23:35:39.661Z,11.33
2019-03-11T23:38:08.909Z,10.70
2019-03-11T23:40:38.550Z,10.17
2019-03-11T23:43:08.304Z,8.67
2019-03-11T23:45:38.174Z,7.10
2019-03-11T23:48:07.960Z,7.97
2019-03-11T23:50:37.620Z,9.27
2019-03-11T23:53:07.394Z,10.40
2019-03-11T23:55:37.190Z,10.73
2019-03-11T23:58:06.965Z,8.27
